Time;durP1;ratioP1;P1;durP2;ratioP2;P2;SDS_P1;SDS_P2;PMS_P1;PMS_P2;Temp;Humidity;BMP_temperature;BMP_pressure;BME280_temperature;BME280_humidity;BME280_pressure;Samples;Min_cycle;Max_cycle;Signal;HPM_P1;HPM_P2
2023/03/05 00:01:39;;;;;;;1999.90;999.90;;;;;;;;;;5105065;28;20035;-73
2023/03/05 00:04:07;;;;;;;1999.90;999.90;;;;;;;;;;5104274;28;20016;-76
2023/03/05 00:06:33;;;;;;;1999.90;999.90;;;;;;;;;;5107408;28;20086;-74
2023/03/05 00:09:00;;;;;;;1999.90;999.90;;;;;;;;;;5107399;28;20267;-74
2023/03/05 00:11:28;;;;;;;1999.90;999.90;;;;;;;;;;5103259;28;20112;-73
2023/03/05 00:13:54;;;;;;;1999.90;999.90;;;;;;;;;;5105738;28;20023;-73
2023/03/05 00:16:21;;;;;;;1999.90;999.90;;;;;;;;;;5106266;28;20328;-73
2023/03/05 00:18:47;;;;;;;1999.90;999.90;;;;;;;;;;5105961;28;20024;-73
2023/03/05 00:21:21;;;;;;;1999.90;999.90;;;;;;;;;;5104763;28;20105;-74
2023/03/05 00:23:49;;;;;;;1999.90;999.90;;;;;;;;;;5107211;28;20024;-73
2023/03/05 00:26:15;;;;;;;1999.90;999.90;;;;;;;;;;5107302;28;20040;-74
2023/03/05 00:28:41;;;;;;;1999.90;999.90;;;;;;;;;;5105053;28;20020;-74
2023/03/05 00:31:07;;;;;;;1999.90;999.90;;;;;;;;;;5105289;28;20023;-73
2023/03/05 00:33:33;;;;;;;1999.90;999.90;;;;;;;;;;5105167;28;20335;-75
2023/03/05 00:36:01;;;;;;;1999.90;999.90;;;;;;;;;;5105495;28;20027;-73
2023/03/05 00:38:27;;;;;;;1999.90;999.90;;;;;;;;;;5105816;28;20052;-73
2023/03/05 00:40:53;;;;;;;1999.90;999.90;;;;;;;;;;5105094;28;20072;-75
2023/03/05 00:43:19;;;;;;;1999.90;999.90;;;;;;;;;;5105838;28;20057;-75
2023/03/05 00:45:45;;;;;;;1999.90;999.90;;;;;;;;;;5100718;28;20365;-75
2023/03/05 00:48:11;;;;;;;1999.90;999.90;;;;;;;;;;5104705;28;20016;-74
2023/03/05 00:50:37;;;;;;;1999.90;999.90;;;;;;;;;;5101460;28;20130;-75
2023/03/05 00:53:03;;;;;;;1999.90;999.90;;;;;;;;;;5105725;28;20081;-74
2023/03/05 00:55:29;;;;;;;1999.90;999.90;;;;;;;;;;5104397;28;20418;-74
2023/03/05 00:57:55;;;;;;;1999.90;999.90;;;;;;;;;;5104623;28;20084;-74
2023/03/05 01:00:21;;;;;;;1999.90;999.90;;;;;;;;;;5104046;28;20073;-73
2023/03/05 01:02:47;;;;;;;1999.90;999.90;;;;;;;;;;5101315;28;20095;-74
2023/03/05 01:05:13;;;;;;;1999.90;999.90;;;;;;;;;;5104212;28;20020;-75
2023/03/05 01:07:39;;;;;;;1999.90;999.90;;;;;;;;;;5103557;28;20047;-74
2023/03/05 01:10:06;;;;;;;1999.90;999.90;;;;;;;;;;5101449;28;20056;-74
2023/03/05 01:12:32;;;;;;;35.88;12.38;;;;;;;;;;5103599;28;20024;-73
2023/03/05 01:14:58;;;;;;;47.13;12.02;;;;;;;;;;5102735;28;20087;-74
2023/03/05 01:17:24;;;;;;;44.90;14.68;;;;;;;;;;5104889;28;20240;-73
2023/03/05 01:19:50;;;;;;;44.53;16.25;;;;;;;;;;5102436;28;20469;-74
2023/03/05 01:22:16;;;;;;;37.42;14.55;;;;;;;;;;5103742;28;20020;-75
2023/03/05 01:24:42;;;;;;;45.80;13.38;;;;;;;;;;5105234;28;20016;-78
2023/03/05 01:27:08;;;;;;;44.47;13.80;;;;;;;;;;5102986;28;20069;-74
2023/03/05 01:29:33;;;;;;;43.65;14.88;;;;;;;;;;5105899;28;20320;-73
2023/03/05 01:32:01;;;;;;;44.90;13.25;;;;;;;;;;5104011;28;20027;-73
2023/03/05 01:34:27;;;;;;;55.50;14.57;;;;;;;;;;5104414;28;20208;-76
2023/03/05 01:36:53;;;;;;;44.88;15.05;;;;;;;;;;5103622;28;20095;-76
2023/03/05 01:39:19;;;;;;;53.97;16.83;;;;;;;;;;5102296;28;20028;-75
2023/03/05 01:41:45;;;;;;;34.70;13.00;;;;;;;;;;5104824;28;20028;-76
2023/03/05 01:44:22;;;;;;;38.08;12.75;;;;;;;;;;5106497;28;20024;-76
2023/03/05 01:46:48;;;;;;;41.67;13.45;;;;;;;;;;5106773;28;20075;-74
2023/03/05 01:49:23;;;;;;;32.50;11.40;;;;;;;;;;5103351;28;20024;-74
2023/03/05 01:52:07;;;;;;;38.60;12.55;;;;;;;;;;5105470;28;20024;-73
2023/03/05 01:54:44;;;;;;;35.00;11.70;;;;;;;;;;5105913;28;20250;-74
2023/03/05 01:57:13;;;;;;;38.00;13.18;;;;;;;;;;5103195;28;20103;-75
2023/03/05 01:59:41;;;;;;;46.25;14.20;;;;;;;;;;5105897;28;20027;-74
2023/03/05 02:02:07;;;;;;;38.63;14.18;;;;;;;;;;5103368;28;20331;-74
2023/03/05 02:04:40;;;;;;;45.70;13.52;;;;;;;;;;5102701;28;20103;-75
2023/03/05 02:07:06;;;;;;;53.78;18.55;;;;;;;;;;5102381;28;20020;-74
2023/03/05 02:09:32;;;;;;;51.47;20.42;;;;;;;;;;5109544;28;20091;-73
2023/03/05 02:11:59;;;;;;;59.13;15.93;;;;;;;;;;5109052;28;20023;-74
2023/03/05 02:14:25;;;;;;;40.10;13.10;;;;;;;;;;5111396;28;20039;-75
2023/03/05 02:16:51;;;;;;;44.42;16.85;;;;;;;;;;5108687;28;20036;-75
2023/03/05 02:19:17;;;;;;;36.58;11.95;;;;;;;;;;5102595;28;20028;-74
2023/03/05 02:21:45;;;;;;;45.10;16.23;;;;;;;;;;5099740;28;20161;-74
2023/03/05 02:24:12;;;;;;;42.03;13.38;;;;;;;;;;5102432;28;20103;-75
2023/03/05 02:26:38;;;;;;;47.95;14.15;;;;;;;;;;5103511;28;20039;-74
2023/03/05 02:29:06;;;;;;;40.75;14.15;;;;;;;;;;5103399;28;20046;-73
2023/03/05 02:31:32;;;;;;;41.95;13.25;;;;;;;;;;5103513;28;20027;-74
2023/03/05 02:33:58;;;;;;;37.15;13.10;;;;;;;;;;5104621;28;20425;-74
2023/03/05 02:36:24;;;;;;;58.17;13.73;;;;;;;;;;5103410;28;20468;-74
2023/03/05 02:38:52;;;;;;;47.97;16.05;;;;;;;;;;5106065;28;20035;-75
2023/03/05 02:41:18;;;;;;;41.85;12.85;;;;;;;;;;5108198;28;20099;-75
2023/03/05 02:43:44;;;;;;;38.72;13.65;;;;;;;;;;5105777;28;20111;-74
2023/03/05 02:46:10;;;;;;;44.03;15.32;;;;;;;;;;5107877;28;20074;-74
2023/03/05 02:48:36;;;;;;;47.70;14.82;;;;;;;;;;5107400;28;20331;-74
2023/03/05 02:51:03;;;;;;;42.63;12.52;;;;;;;;;;5106491;28;20043;-75
2023/03/05 02:53:29;;;;;;;45.88;13.82;;;;;;;;;;5106015;28;20024;-75
2023/03/05 02:55:55;;;;;;;45.35;14.30;;;;;;;;;;5107994;28;20046;-75
2023/03/05 02:58:21;;;;;;;30.65;12.20;;;;;;;;;;5104617;28;20091;-75
2023/03/05 03:00:47;;;;;;;38.45;13.85;;;;;;;;;;5104381;28;20081;-75
2023/03/05 03:03:13;;;;;;;43.47;13.90;;;;;;;;;;5105725;28;20024;-74
2023/03/05 03:05:40;;;;;;;50.08;14.88;;;;;;;;;;5102350;28;20020;-75
2023/03/05 03:08:06;;;;;;;45.92;13.55;;;;;;;;;;5108072;28;20023;-77
2023/03/05 03:10:32;;;;;;;43.28;14.23;;;;;;;;;;5103926;28;20247;-75
2023/03/05 03:12:58;;;;;;;40.53;13.35;;;;;;;;;;5107882;28;20453;-76
2023/03/05 03:15:24;;;;;;;40.53;11.85;;;;;;;;;;5108061;28;20082;-75
2023/03/05 03:17:50;;;;;;;49.97;13.60;;;;;;;;;;5107256;28;20035;-74
2023/03/05 03:20:17;;;;;;;41.00;12.70;;;;;;;;;;5107752;28;20197;-75
2023/03/05 03:22:44;;;;;;;39.83;11.93;;;;;;;;;;5106565;28;20031;-75
2023/03/05 03:25:11;;;;;;;41.17;12.63;;;;;;;;;;5103175;28;20024;-76
2023/03/05 03:27:37;;;;;;;46.35;13.20;;;;;;;;;;5105846;28;20027;-74
2023/03/05 03:30:04;;;;;;;40.60;11.65;;;;;;;;;;5104553;28;20087;-74
2023/03/05 03:32:31;;;;;;;41.50;12.57;;;;;;;;;;5104907;28;20050;-75
2023/03/05 03:34:57;;;;;;;48.72;16.10;;;;;;;;;;5104922;28;20024;-74
2023/03/05 03:37:25;;;;;;;51.35;13.93;;;;;;;;;;5104682;28;20027;-74
2023/03/05 03:39:51;;;;;;;43.03;14.93;;;;;;;;;;5105088;28;20020;-75
2023/03/05 03:42:17;;;;;;;30.15;12.13;;;;;;;;;;5105041;28;20035;-74
2023/03/05 03:44:43;;;;;;;39.17;13.07;;;;;;;;;;5105555;28;20091;-76
2023/03/05 03:47:09;;;;;;;43.45;12.93;;;;;;;;;;5105669;28;20050;-76
2023/03/05 03:49:35;;;;;;;41.47;15.30;;;;;;;;;;5106095;28;20024;-74
2023/03/05 03:52:01;;;;;;;47.40;15.50;;;;;;;;;;5102819;28;20016;-76
2023/03/05 03:54:27;;;;;;;51.10;14.50;;;;;;;;;;5102935;28;20030;-74
2023/03/05 03:56:53;;;;;;;46.70;13.18;;;;;;;;;;5104237;28;20316;-75
2023/03/05 03:59:19;;;;;;;40.28;16.83;;;;;;;;;;5105546;28;20028;-75
2023/03/05 04:01:46;;;;;;;43.70;12.77;;;;;;;;;;5103149;28;20032;-74
2023/03/05 04:04:12;;;;;;;41.75;12.43;;;;;;;;;;5104875;28;20020;-74
2023/03/05 04:06:38;;;;;;;44.85;16.80;;;;;;;;;;5102277;28;20057;-76
2023/03/05 04:09:06;;;;;;;56.78;14.35;;;;;;;;;;5106058;28;20076;-75
2023/03/05 04:11:33;;;;;;;49.03;14.40;;;;;;;;;;5106088;28;20019;-74
2023/03/05 04:13:59;;;;;;;61.80;16.65;;;;;;;;;;5104995;28;20024;-75
2023/03/05 04:16:25;;;;;;;48.33;16.25;;;;;;;;;;5105662;28;20062;-74
2023/03/05 04:18:51;;;;;;;57.78;18.77;;;;;;;;;;5104009;28;20074;-75
2023/03/05 04:21:17;;;;;;;44.90;14.98;;;;;;;;;;5105052;28;20232;-76
2023/03/05 04:23:43;;;;;;;57.15;13.52;;;;;;;;;;5104699;28;20023;-74
2023/03/05 04:26:09;;;;;;;37.13;15.60;;;;;;;;;;5106710;28;20024;-74
2023/03/05 04:28:35;;;;;;;39.22;14.77;;;;;;;;;;5107060;28;20028;-74
2023/03/05 04:31:01;;;;;;;48.80;14.30;;;;;;;;;;5105843;28;20023;-74
2023/03/05 04:33:27;;;;;;;43.85;14.77;;;;;;;;;;5104951;28;20012;-74
2023/03/05 04:35:53;;;;;;;55.03;16.23;;;;;;;;;;5106109;28;20030;-74
2023/03/05 04:38:19;;;;;;;40.20;12.88;;;;;;;;;;5107618;28;20020;-75
2023/03/05 04:40:46;;;;;;;50.67;15.98;;;;;;;;;;5106030;28;20076;-74
2023/03/05 04:43:12;;;;;;;39.83;14.52;;;;;;;;;;5104615;28;20024;-76
2023/03/05 04:45:42;;;;;;;45.60;15.65;;;;;;;;;;5106000;28;20043;-75
2023/03/05 04:48:08;;;;;;;50.47;14.52;;;;;;;;;;5108914;28;20016;-75
2023/03/05 04:50:34;;;;;;;43.70;13.63;;;;;;;;;;5109672;28;20044;-75
2023/03/05 04:53:01;;;;;;;51.78;14.20;;;;;;;;;;5107330;28;20031;-75
2023/03/05 04:55:27;;;;;;;41.03;11.77;;;;;;;;;;5110866;28;20027;-74
2023/03/05 04:57:53;;;;;;;42.35;14.43;;;;;;;;;;5109199;28;20020;-74
2023/03/05 05:00:19;;;;;;;46.33;16.27;;;;;;;;;;5108720;28;20028;-75
2023/03/05 05:02:46;;;;;;;54.67;17.42;;;;;;;;;;5107932;28;20028;-75
2023/03/05 05:05:14;;;;;;;75.13;24.17;;;;;;;;;;5107362;28;20016;-74
2023/03/05 05:07:40;;;;;;;57.25;19.80;;;;;;;;;;5109183;28;20051;-75
2023/03/05 05:10:07;;;;;;;66.55;19.63;;;;;;;;;;5109178;28;20016;-76
2023/03/05 05:12:34;;;;;;;50.35;16.63;;;;;;;;;;5108920;28;20035;-74
2023/03/05 05:15:00;;;;;;;44.85;12.55;;;;;;;;;;5106701;28;20055;-74
2023/03/05 05:17:29;;;;;;;41.35;14.68;;;;;;;;;;5108765;28;20124;-76
2023/03/05 05:19:55;;;;;;;43.10;16.33;;;;;;;;;;5110163;28;20300;-75
2023/03/05 05:22:21;;;;;;;47.67;13.57;;;;;;;;;;5108246;28;20031;-74
2023/03/05 05:24:46;;;;;;;45.45;13.63;;;;;;;;;;5108477;28;20016;-74
2023/03/05 05:27:12;;;;;;;40.72;15.40;;;;;;;;;;5106779;28;20024;-75
2023/03/05 05:29:39;;;;;;;51.20;16.65;;;;;;;;;;5108084;28;20020;-74
2023/03/05 05:32:05;;;;;;;55.55;19.33;;;;;;;;;;5108230;28;20384;-74
2023/03/05 05:34:31;;;;;;;64.38;17.63;;;;;;;;;;5110038;28;20028;-75
2023/03/05 05:36:57;;;;;;;54.38;14.10;;;;;;;;;;5105480;28;20052;-76
2023/03/05 05:39:23;;;;;;;51.92;18.15;;;;;;;;;;5109790;28;20023;-76
2023/03/05 05:41:52;;;;;;;55.03;16.52;;;;;;;;;;5106631;28;20036;-74
2023/03/05 05:44:18;;;;;;;58.90;17.33;;;;;;;;;;5106869;28;20021;-74
2023/03/05 05:46:44;;;;;;;47.38;17.13;;;;;;;;;;5106894;28;20058;-76
2023/03/05 05:49:10;;;;;;;55.70;20.10;;;;;;;;;;5107475;28;20027;-76
2023/03/05 05:51:36;;;;;;;53.88;14.70;;;;;;;;;;5105708;28;20455;-74
2023/03/05 05:54:02;;;;;;;57.47;15.52;;;;;;;;;;5108458;28;20020;-76
2023/03/05 05:56:28;;;;;;;51.85;15.25;;;;;;;;;;5107934;28;20039;-77
2023/03/05 05:58:54;;;;;;;55.70;17.05;;;;;;;;;;5109724;28;20039;-76
2023/03/05 06:01:25;;;;;;;54.08;16.98;;;;;;;;;;5106287;28;20336;-74
2023/03/05 06:03:51;;;;;;;52.78;16.85;;;;;;;;;;5108688;28;20234;-74
2023/03/05 06:06:19;;;;;;;43.70;15.25;;;;;;;;;;5107214;28;20304;-75
2023/03/05 06:08:45;;;;;;;56.72;18.65;;;;;;;;;;5105982;28;20521;-75
2023/03/05 06:11:11;;;;;;;54.25;14.20;;;;;;;;;;5109368;28;20197;-74
2023/03/05 06:13:38;;;;;;;60.35;16.73;;;;;;;;;;5108902;28;20241;-76
2023/03/05 06:16:06;;;;;;;55.95;16.27;;;;;;;;;;5108459;28;20235;-77
2023/03/05 06:18:32;;;;;;;47.55;13.88;;;;;;;;;;5105662;28;20114;-75
2023/03/05 06:21:00;;;;;;;53.25;17.73;;;;;;;;;;5107477;28;20079;-76
2023/03/05 06:23:27;;;;;;;43.45;15.55;;;;;;;;;;5107717;28;20023;-75
2023/03/05 06:25:53;;;;;;;48.90;15.70;;;;;;;;;;5108506;28;20020;-76
2023/03/05 06:28:19;;;;;;;60.80;18.67;;;;;;;;;;5109030;28;20035;-75
2023/03/05 06:30:45;;;;;;;51.58;17.40;;;;;;;;;;5110592;28;20115;-74
2023/03/05 06:33:11;;;;;;;43.58;15.32;;;;;;;;;;5111094;28;20016;-74
2023/03/05 06:35:41;;;;;;;55.08;16.23;;;;;;;;;;5110209;28;20024;-74
2023/03/05 06:38:08;;;;;;;56.97;18.33;;;;;;;;;;5109210;28;20032;-74
2023/03/05 06:40:34;;;;;;;44.47;15.82;;;;;;;;;;5106856;28;20036;-75
2023/03/05 06:43:00;;;;;;;55.42;15.80;;;;;;;;;;5106847;28;20031;-75
2023/03/05 06:45:26;;;;;;;63.50;15.30;;;;;;;;;;5105993;28;20227;-74
2023/03/05 06:47:52;;;;;;;63.55;16.83;;;;;;;;;;5103391;28;20020;-77
2023/03/05 06:50:18;;;;;;;57.00;15.43;;;;;;;;;;5105174;28;20031;-76
2023/03/05 06:52:44;;;;;;;55.85;16.52;;;;;;;;;;5103899;28;20098;-76
2023/03/05 06:55:11;;;;;;;59.72;17.92;;;;;;;;;;5106104;28;20212;-73
2023/03/05 06:57:37;;;;;;;54.33;17.90;;;;;;;;;;5106292;28;20220;-74
2023/03/05 07:00:13;;;;;;;51.40;17.75;;;;;;;;;;5103228;28;20035;-73
2023/03/05 07:02:39;;;;;;;62.20;16.67;;;;;;;;;;5103756;28;20354;-75
2023/03/05 07:05:06;;;;;;;62.33;17.63;;;;;;;;;;5098789;28;20027;-76
2023/03/05 07:07:33;;;;;;;62.85;18.05;;;;;;;;;;5102789;28;20249;-74
2023/03/05 07:09:59;;;;;;;59.20;19.77;;;;;;;;;;5098377;28;20065;-73
2023/03/05 07:12:25;;;;;;;67.50;18.98;;;;;;;;;;5101440;28;20035;-74
2023/03/05 07:14:51;;;;;;;56.88;18.27;;;;;;;;;;5099862;28;20300;-73
2023/03/05 07:17:17;;;;;;;66.55;21.90;;;;;;;;;;5102023;28;20035;-75
2023/03/05 07:19:43;;;;;;;60.40;21.65;;;;;;;;;;5102507;28;20020;-74
2023/03/05 07:22:09;;;;;;;69.00;23.08;;;;;;;;;;5100305;28;20024;-73
2023/03/05 07:24:35;;;;;;;55.88;19.15;;;;;;;;;;5102875;28;20016;-73
2023/03/05 07:27:02;;;;;;;64.82;18.38;;;;;;;;;;5101461;28;20020;-73
2023/03/05 07:29:28;;;;;;;54.60;22.08;;;;;;;;;;5099907;28;20072;-76
2023/03/05 07:31:54;;;;;;;65.35;20.52;;;;;;;;;;5100381;28;20043;-74
2023/03/05 07:34:20;;;;;;;51.70;20.48;;;;;;;;;;5099717;28;20024;-74
2023/03/05 07:36:49;;;;;;;55.20;17.98;;;;;;;;;;5101096;28;20043;-77
2023/03/05 07:39:17;;;;;;;72.57;19.17;;;;;;;;;;5100354;28;20063;-76
2023/03/05 07:41:43;;;;;;;58.95;20.38;;;;;;;;;;5102682;28;20048;-75
2023/03/05 07:44:09;;;;;;;56.03;18.80;;;;;;;;;;5102508;28;20020;-76
2023/03/05 07:46:35;;;;;;;67.05;27.98;;;;;;;;;;5101746;28;20024;-76
2023/03/05 07:49:01;;;;;;;64.95;22.65;;;;;;;;;;5101561;28;20023;-75
2023/03/05 07:51:27;;;;;;;62.85;22.13;;;;;;;;;;5098271;28;20024;-76
2023/03/05 07:53:56;;;;;;;70.32;21.95;;;;;;;;;;5100503;28;20220;-76
2023/03/05 07:56:24;;;;;;;56.30;21.85;;;;;;;;;;5098674;28;20106;-76
2023/03/05 07:58:50;;;;;;;67.22;22.55;;;;;;;;;;5100959;28;20024;-77
2023/03/05 08:01:17;;;;;;;61.97;21.35;;;;;;;;;;5098407;28;20173;-76
2023/03/05 08:03:43;;;;;;;69.38;21.25;;;;;;;;;;5100653;28;20024;-76
2023/03/05 08:06:10;;;;;;;66.85;23.02;;;;;;;;;;5100409;28;20111;-78
2023/03/05 08:08:36;;;;;;;61.95;20.38;;;;;;;;;;5102388;28;20024;-75
2023/03/05 08:11:06;;;;;;;62.17;23.80;;;;;;;;;;5103107;28;20114;-76
2023/03/05 08:13:39;;;;;;;55.20;19.15;;;;;;;;;;5099309;28;20023;-75
2023/03/05 08:16:09;;;;;;;54.40;19.63;;;;;;;;;;5102097;28;20056;-74
2023/03/05 08:18:35;;;;;;;56.80;21.27;;;;;;;;;;5102763;28;20358;-76
2023/03/05 08:21:02;;;;;;;59.85;22.40;;;;;;;;;;5099823;28;20036;-75
2023/03/05 08:23:28;;;;;;;59.58;22.17;;;;;;;;;;5104164;28;20087;-75
2023/03/05 08:25:55;;;;;;;55.58;21.35;;;;;;;;;;5104674;28;20343;-74
2023/03/05 08:28:21;;;;;;;56.90;20.30;;;;;;;;;;5107118;28;20043;-73
2023/03/05 08:30:48;;;;;;;56.08;22.20;;;;;;;;;;5102384;28;20024;-74
2023/03/05 08:33:16;;;;;;;53.03;21.65;;;;;;;;;;5107610;28;20043;-75
2023/03/05 08:35:42;;;;;;;50.38;20.10;;;;;;;;;;5103851;28;20097;-75
2023/03/05 08:38:08;;;;;;;56.67;19.40;;;;;;;;;;5107397;28;20020;-74
2023/03/05 08:40:34;;;;;;;54.88;19.25;;;;;;;;;;5106167;28;20113;-74
2023/03/05 08:43:00;;;;;;;50.25;20.92;;;;;;;;;;5102746;28;20273;-75
2023/03/05 08:45:27;;;;;;;56.30;19.05;;;;;;;;;;5104548;28;20024;-75
2023/03/05 08:47:56;;;;;;;47.60;19.05;;;;;;;;;;5104579;28;20355;-74
2023/03/05 08:50:23;;;;;;;49.53;19.65;;;;;;;;;;5105058;28;20020;-75
2023/03/05 08:52:49;;;;;;;61.05;21.00;;;;;;;;;;5105457;28;20024;-74
2023/03/05 08:55:15;;;;;;;51.17;18.55;;;;;;;;;;5106658;28;20023;-73
2023/03/05 08:57:41;;;;;;;48.33;18.42;;;;;;;;;;5106377;28;20020;-75
2023/03/05 09:00:09;;;;;;;57.65;16.15;;;;;;;;;;5106567;28;20020;-75
2023/03/05 09:02:35;;;;;;;52.22;19.13;;;;;;;;;;5106266;28;20224;-74
2023/03/05 09:05:01;;;;;;;45.97;17.55;;;;;;;;;;5103562;28;20061;-75
2023/03/05 09:07:27;;;;;;;51.05;18.05;;;;;;;;;;5106232;28;20020;-75
2023/03/05 09:09:53;;;;;;;44.60;18.98;;;;;;;;;;5105008;28;20041;-75
2023/03/05 09:12:19;;;;;;;39.95;18.45;;;;;;;;;;5105174;28;20038;-75
2023/03/05 09:14:45;;;;;;;51.05;18.02;;;;;;;;;;5105946;28;20300;-74
2023/03/05 09:17:11;;;;;;;56.58;20.30;;;;;;;;;;5104121;28;20087;-75
2023/03/05 09:19:37;;;;;;;51.40;17.35;;;;;;;;;;5104378;28;20188;-77
2023/03/05 09:22:03;;;;;;;40.15;16.33;;;;;;;;;;5104870;28;20031;-74
2023/03/05 09:24:32;;;;;;;38.42;16.20;;;;;;;;;;5104441;28;20020;-76
2023/03/05 09:26:59;;;;;;;46.65;16.98;;;;;;;;;;5104385;28;20035;-76
2023/03/05 09:29:26;;;;;;;51.00;16.10;;;;;;;;;;5105229;28;20028;-74
2023/03/05 09:32:01;;;;;;;46.95;18.35;;;;;;;;;;5106404;28;20200;-77
2023/03/05 09:34:27;;;;;;;49.88;16.63;;;;;;;;;;5104229;28;20027;-76
2023/03/05 09:36:56;;;;;;;48.60;17.52;;;;;;;;;;5102528;28;20028;-76
2023/03/05 09:39:22;;;;;;;45.60;16.93;;;;;;;;;;5097232;28;20016;-75
2023/03/05 09:41:54;;;;;;;48.78;19.58;;;;;;;;;;5099398;28;20328;-76
2023/03/05 09:44:40;;;;;;;46.85;17.13;;;;;;;;;;5105811;28;20020;-75
2023/03/05 09:47:15;;;;;;;41.33;15.23;;;;;;;;;;5105896;28;20047;-75
2023/03/05 09:50:11;;;;;;;47.15;16.55;;;;;;;;;;5105378;28;20308;-76
2023/03/05 09:52:43;;;;;;;40.03;15.45;;;;;;;;;;5087809;28;20028;-76
2023/03/05 09:55:28;;;;;;;43.28;16.85;;;;;;;;;;5103429;28;20039;-76
2023/03/05 09:57:56;;;;;;;36.00;15.38;;;;;;;;;;5104397;28;20016;-74
2023/03/05 10:00:32;;;;;;;39.63;18.52;;;;;;;;;;5103292;28;20059;-77
2023/03/05 10:03:00;;;;;;;38.97;14.13;;;;;;;;;;5105603;28;20426;-75
2023/03/05 10:05:45;;;;;;;37.30;14.43;;;;;;;;;;5105300;28;20020;-76
2023/03/05 10:08:12;;;;;;;36.75;14.43;;;;;;;;;;5103908;28;20044;-75
2023/03/05 10:10:38;;;;;;;35.08;14.20;;;;;;;;;;5103833;28;20016;-77
2023/03/05 10:13:07;;;;;;;33.63;14.05;;;;;;;;;;5102326;28;20039;-76
2023/03/05 10:15:55;;;;;;;25.40;10.88;;;;;;;;;;5098913;28;20182;-75
2023/03/05 10:18:57;;;;;;;36.78;12.93;;;;;;;;;;5099634;28;20032;-74
2023/03/05 10:21:26;;;;;;;31.90;12.30;;;;;;;;;;5038581;28;20262;-74
2023/03/05 10:24:13;;;;;;;39.03;14.75;;;;;;;;;;5092722;28;20246;-75
2023/03/05 10:26:44;;;;;;;32.58;13.35;;;;;;;;;;5105146;28;20265;-76
2023/03/05 10:29:16;;;;;;;29.50;12.30;;;;;;;;;;5105436;28;20016;-76
2023/03/05 10:32:01;;;;;;;31.20;12.50;;;;;;;;;;5106041;28;20025;-76
2023/03/05 10:34:38;;;;;;;32.55;12.30;;;;;;;;;;5106149;28;20055;-76
2023/03/05 10:37:23;;;;;;;36.25;12.05;;;;;;;;;;5104722;28;20024;-75
2023/03/05 10:40:06;;;;;;;28.88;10.95;;;;;;;;;;5104526;28;20063;-76
2023/03/05 10:42:38;;;;;;;27.88;13.13;;;;;;;;;;5104673;28;20019;-74
2023/03/05 10:45:15;;;;;;;26.08;10.02;;;;;;;;;;5103850;28;20019;-75
2023/03/05 10:48:01;;;;;;;24.55;10.65;;;;;;;;;;5104166;28;20042;-74
2023/03/05 10:50:31;;;;;;;29.27;10.13;;;;;;;;;;5103891;28;20027;-75
2023/03/05 10:52:57;;;;;;;;;;;;;;;;;;5101604;28;20301;-74
2023/03/05 10:55:23;;;;;;;30.42;11.10;;;;;;;;;;5099052;28;19975;-74
2023/03/05 10:57:49;;;;;;;25.42;10.02;;;;;;;;;;5104181;28;20023;-74
2023/03/05 11:00:15;;;;;;;28.35;12.30;;;;;;;;;;5103511;28;20024;-74
2023/03/05 11:02:56;;;;;;;29.65;11.40;;;;;;;;;;5103759;28;20020;-74
2023/03/05 11:05:40;;;;;;;33.38;12.80;;;;;;;;;;5103893;28;20020;-76
2023/03/05 11:08:19;;;;;;;35.33;12.82;;;;;;;;;;5102526;28;20074;-73
2023/03/05 11:10:45;;;;;;;28.52;11.10;;;;;;;;;;5102805;28;20055;-74
2023/03/05 11:13:37;;;;;;;25.67;9.75;;;;;;;;;;5104203;28;20069;-77
2023/03/05 11:16:05;;;;;;;25.80;10.05;;;;;;;;;;5072259;28;20063;-74
2023/03/05 11:18:33;;;;;;;23.60;9.73;;;;;;;;;;5102874;28;20023;-76
2023/03/05 11:21:18;;;;;;;23.35;8.98;;;;;;;;;;5103861;28;20039;-74
2023/03/05 11:24:02;;;;;;;21.20;7.97;;;;;;;;;;5102789;28;20054;-74
2023/03/05 11:26:28;;;;;;;27.60;10.30;;;;;;;;;;5102422;28;20056;-74
2023/03/05 11:28:56;;;;;;;21.58;10.40;;;;;;;;;;5102504;28;20258;-74
2023/03/05 11:31:23;;;;;;;24.75;10.70;;;;;;;;;;5103631;28;20304;-75
2023/03/05 11:33:57;;;;;;;27.80;12.75;;;;;;;;;;5102440;28;20024;-76
2023/03/05 11:36:30;;;;;;;32.13;13.18;;;;;;;;;;5102571;28;20016;-76
2023/03/05 11:38:58;;;;;;;31.45;12.73;;;;;;;;;;5104596;28;20008;-74
2023/03/05 11:41:26;;;;;;;26.75;12.80;;;;;;;;;;5104409;28;20032;-74
2023/03/05 11:43:54;;;;;;;26.75;11.07;;;;;;;;;;5103494;28;20208;-74
2023/03/05 11:46:21;;;;;;;30.05;11.70;;;;;;;;;;5102628;28;20020;-76
2023/03/05 11:48:47;;;;;;;21.30;10.95;;;;;;;;;;5102700;28;20016;-74
2023/03/05 11:51:22;;;;;;;30.40;12.25;;;;;;;;;;5103649;28;20020;-75
2023/03/05 11:53:51;;;;;;;32.60;11.98;;;;;;;;;;5103589;28;20300;-76
2023/03/05 11:56:17;;;;;;;23.00;10.75;;;;;;;;;;5104311;28;20016;-74
2023/03/05 11:58:49;;;;;;;23.17;9.93;;;;;;;;;;5108568;28;20008;-74
2023/03/05 12:01:21;;;;;;;25.45;10.73;;;;;;;;;;5107710;28;20137;-74
2023/03/05 12:03:47;;;;;;;28.13;11.05;;;;;;;;;;5108879;28;20036;-76
2023/03/05 12:06:25;;;;;;;24.40;10.18;;;;;;;;;;5108768;28;20024;-75
2023/03/05 12:08:54;;;;;;;44.58;18.38;;;;;;;;;;5109120;28;20020;-77
2023/03/05 12:11:26;;;;;;;15.15;7.88;;;;;;;;;;5106570;28;20087;-74
2023/03/05 12:13:57;;;;;;;25.48;10.32;;;;;;;;;;5106395;28;20337;-74
2023/03/05 12:16:27;;;;;;;20.90;9.77;;;;;;;;;;5107397;28;20055;-73
2023/03/05 12:19:02;;;;;;;20.75;9.60;;;;;;;;;;5107373;28;20212;-74
2023/03/05 12:21:36;;;;;;;17.02;8.43;;;;;;;;;;5107869;28;20036;-74
2023/03/05 12:24:22;;;;;;;17.67;7.50;;;;;;;;;;5106496;28;20039;-75
2023/03/05 12:26:58;;;;;;;20.92;7.68;;;;;;;;;;5108254;28;20022;-74
2023/03/05 12:29:43;;;;;;;21.23;9.23;;;;;;;;;;5107380;28;20300;-74
2023/03/05 12:32:21;;;;;;;21.83;10.82;;;;;;;;;;5107099;28;20026;-74
2023/03/05 12:34:58;;;;;;;21.13;9.02;;;;;;;;;;5106913;28;20008;-74
2023/03/05 12:37:23;;;;;;;24.35;9.20;;;;;;;;;;5108186;28;20065;-74
2023/03/05 12:39:51;;;;;;;21.75;9.85;;;;;;;;;;5108938;28;20327;-74
2023/03/05 12:42:30;;;;;;;22.35;8.07;;;;;;;;;;5107211;28;20055;-75
2023/03/05 12:45:13;;;;;;;21.42;9.68;;;;;;;;;;5106361;28;20330;-77
2023/03/05 12:47:40;;;;;;;26.90;9.07;;;;;;;;;;5105639;28;20035;-74
2023/03/05 12:50:29;;;;;;;23.77;10.68;;;;;;;;;;5105081;28;20016;-75
2023/03/05 12:52:59;;;;;;;19.15;8.45;;;;;;;;;;5106749;28;20031;-74
2023/03/05 12:55:28;;;;;;;24.77;8.88;;;;;;;;;;5106310;28;20024;-75
2023/03/05 12:58:00;;;;;;;23.75;8.70;;;;;;;;;;5105105;28;20016;-76
2023/03/05 13:00:26;;;;;;;24.10;8.20;;;;;;;;;;5105336;28;20036;-75
2023/03/05 13:02:56;;;;;;;20.00;6.80;;;;;;;;;;5105772;28;20099;-76
2023/03/05 13:05:28;;;;;;;15.63;7.30;;;;;;;;;;5106916;28;20016;-76
2023/03/05 13:08:08;;;;;;;17.23;7.15;;;;;;;;;;5104704;28;20104;-76
2023/03/05 13:10:34;;;;;;;20.95;9.50;;;;;;;;;;5106627;28;20012;-76
2023/03/05 13:13:01;;;;;;;25.08;9.68;;;;;;;;;;5105232;28;20058;-75
2023/03/05 13:15:28;;;;;;;25.13;8.50;;;;;;;;;;5105345;28;20366;-76
2023/03/05 13:17:59;;;;;;;15.02;7.47;;;;;;;;;;5104952;28;20114;-76
2023/03/05 13:20:25;;;;;;;21.60;8.18;;;;;;;;;;5105984;28;20390;-75
2023/03/05 13:23:12;;;;;;;25.75;10.60;;;;;;;;;;5106544;28;20239;-75
2023/03/05 13:25:38;;;;;;;23.25;10.15;;;;;;;;;;5091413;28;20308;-75
2023/03/05 13:28:09;;;;;;;18.98;9.23;;;;;;;;;;5106115;28;20154;-75
2023/03/05 13:30:35;;;;;;;12.02;6.40;;;;;;;;;;5107368;28;20012;-75
2023/03/05 13:33:02;;;;;;;14.38;6.97;;;;;;;;;;5104592;28;20312;-76
2023/03/05 13:35:29;;;;;;;13.65;6.05;;;;;;;;;;5105866;28;20093;-76
2023/03/05 13:37:55;;;;;;;14.25;6.20;;;;;;;;;;5105946;28;20016;-76
2023/03/05 13:40:23;;;;;;;14.05;5.85;;;;;;;;;;5105679;28;20031;-76
2023/03/05 13:42:50;;;;;;;12.43;7.30;;;;;;;;;;5105817;28;20020;-76
2023/03/05 13:45:36;;;;;;;12.80;5.55;;;;;;;;;;5105603;28;20036;-75
2023/03/05 13:48:04;;;;;;;16.27;7.65;;;;;;;;;;5106111;28;20181;-76
2023/03/05 13:50:32;;;;;;;17.40;7.32;;;;;;;;;;5105428;28;20020;-75
2023/03/05 13:53:36;;;;;;;13.82;6.78;;;;;;;;;;5105145;28;20016;-76
2023/03/05 13:56:04;;;;;;;12.40;6.50;;;;;;;;;;5027412;28;20021;-75
2023/03/05 13:58:46;;;;;;;12.00;7.30;;;;;;;;;;5026493;28;20018;-75
2023/03/05 14:01:35;;;;;;;16.92;6.15;;;;;;;;;;5080782;28;20044;-75
2023/03/05 14:04:01;;;;;;;16.55;5.85;;;;;;;;;;5104138;28;20020;-75
2023/03/05 14:06:27;;;;;;;11.90;5.63;;;;;;;;;;5106016;28;20074;-74
2023/03/05 14:08:58;;;;;;;10.13;4.97;;;;;;;;;;5105821;28;20008;-76
2023/03/05 14:11:24;;;;;;;14.40;6.20;;;;;;;;;;5105174;28;20022;-76
2023/03/05 14:13:57;;;;;;;23.63;8.90;;;;;;;;;;5104546;28;20311;-75
2023/03/05 14:16:26;;;;;;;13.43;4.80;;;;;;;;;;5104739;28;20047;-74
2023/03/05 14:18:53;;;;;;;18.02;6.63;;;;;;;;;;5104887;28;20061;-74
2023/03/05 14:21:20;;;;;;;17.35;6.35;;;;;;;;;;5106561;28;20347;-75
2023/03/05 14:23:47;;;;;;;13.43;5.40;;;;;;;;;;5105114;28;20016;-75
2023/03/05 14:26:13;;;;;;;11.80;5.13;;;;;;;;;;5106258;28;20039;-75